createdAt,value
2019-05-10T00:02:09.908Z,99.90
2019-05-10T00:04:54.883Z,99.90
2019-05-10T00:07:40.064Z,99.90
2019-05-10T00:10:06.769Z,99.90
2019-05-10T00:12:51.707Z,99.90
2019-05-10T00:15:20.672Z,99.90
2019-05-10T00:17:47.932Z,99.90
2019-05-10T00:20:14.968Z,99.90
2019-05-10T00:22:41.861Z,99.90
2019-05-10T00:25:09.020Z,99.90
2019-05-10T00:27:35.787Z,99.90
2019-05-10T00:30:03.335Z,99.90
2019-05-10T00:32:30.203Z,99.90
2019-05-10T00:34:56.951Z,99.90
2019-05-10T00:37:23.847Z,99.90
2019-05-10T00:39:50.611Z,99.90
2019-05-10T00:42:17.476Z,99.90
2019-05-10T00:44:44.231Z,99.90
2019-05-10T00:47:11.116Z,99.90
2019-05-10T00:49:38.157Z,99.90
2019-05-10T00:52:05.187Z,99.90
2019-05-10T00:54:31.979Z,99.90
2019-05-10T00:56:58.971Z,99.90
2019-05-10T00:59:25.737Z,99.90
2019-05-10T01:01:52.680Z,99.90
2019-05-10T01:04:19.560Z,99.90
2019-05-10T01:06:46.579Z,99.90
2019-05-10T01:09:13.581Z,99.90
2019-05-10T01:11:40.676Z,99.90
2019-05-10T01:14:07.629Z,99.90
2019-05-10T01:16:34.409Z,99.90
2019-05-10T01:19:01.199Z,99.90
2019-05-10T01:21:28.108Z,99.90
2019-05-10T01:23:54.890Z,99.90
2019-05-10T01:26:21.750Z,99.90
2019-05-10T01:28:48.579Z,99.90
2019-05-10T01:31:15.547Z,99.90
2019-05-10T01:33:42.441Z,99.90
2019-05-10T01:36:09.209Z,99.90
2019-05-10T01:38:36.119Z,99.90
2019-05-10T01:41:03.164Z,99.90
2019-05-10T01:43:30.310Z,99.90
2019-05-10T01:45:57.082Z,99.90
2019-05-10T01:48:23.865Z,99.90
2019-05-10T01:50:50.639Z,99.90
2019-05-10T01:53:17.515Z,99.90
2019-05-10T01:55:52.224Z,99.90
2019-05-10T01:58:13.338Z,99.90
2019-05-10T02:00:40.048Z,99.90
2019-05-10T02:03:06.769Z,99.90
2019-05-10T02:05:33.536Z,99.90
2019-05-10T02:08:00.310Z,99.90
2019-05-10T02:10:27.340Z,99.90
2019-05-10T02:12:54.279Z,99.90
2019-05-10T02:15:21.119Z,99.90
2019-05-10T02:17:47.982Z,99.90
2019-05-10T02:20:15.124Z,99.90
2019-05-10T02:22:41.995Z,99.90
2019-05-10T02:25:09.446Z,99.90
2019-05-10T02:27:36.323Z,99.90
2019-05-10T02:30:04.503Z,99.90
2019-05-10T02:32:31.375Z,99.90
2019-05-10T02:34:58.217Z,99.90
2019-05-10T02:37:25.088Z,99.90
2019-05-10T02:39:51.813Z,99.90
2019-05-10T02:42:18.547Z,99.90
2019-05-10T02:44:45.415Z,99.90
2019-05-10T02:47:12.160Z,99.90
2019-05-10T02:49:39.015Z,99.90
2019-05-10T02:52:06.191Z,99.90
2019-05-10T02:54:33.167Z,99.90
2019-05-10T02:57:01.876Z,99.90
2019-05-10T02:59:29.570Z,99.90
2019-05-10T03:01:56.327Z,99.90
2019-05-10T03:04:24.601Z,99.90
2019-05-10T03:07:01.380Z,99.90
2019-05-10T03:09:30.452Z,99.90
2019-05-10T03:12:02.509Z,99.90
2019-05-10T03:14:33.648Z,99.90
2019-05-10T03:17:02.755Z,99.90
2019-05-10T03:19:30.655Z,99.90
2019-05-10T03:22:05.492Z,99.90
2019-05-10T03:24:32.505Z,99.90
2019-05-10T03:26:59.387Z,99.90
2019-05-10T03:29:26.405Z,99.90
2019-05-10T03:31:53.432Z,99.90
2019-05-10T03:34:20.437Z,99.90
2019-05-10T03:36:47.649Z,99.90
2019-05-10T03:39:14.583Z,99.90
2019-05-10T03:41:41.603Z,99.90
2019-05-10T03:44:08.339Z,99.90
2019-05-10T03:46:35.724Z,99.90
2019-05-10T03:49:02.693Z,99.90
2019-05-10T03:51:29.432Z,99.90
2019-05-10T03:53:56.212Z,99.90
2019-05-10T03:56:22.972Z,99.90
2019-05-10T03:58:49.700Z,99.90
2019-05-10T04:01:16.631Z,99.90
2019-05-10T04:04:03.125Z,99.90
2019-05-10T04:06:29.860Z,99.90
2019-05-10T04:08:56.843Z,99.90
2019-05-10T04:11:23.675Z,99.90
2019-05-10T04:13:50.584Z,99.90
2019-05-10T04:16:17.435Z,99.90
2019-05-10T04:18:44.400Z,99.90
2019-05-10T04:21:11.153Z,99.90
2019-05-10T04:23:37.885Z,99.90
2019-05-10T04:26:04.872Z,99.90
2019-05-10T04:28:31.589Z,99.90
2019-05-10T04:30:58.363Z,99.90
2019-05-10T04:33:25.126Z,99.90
2019-05-10T04:35:51.892Z,99.90
2019-05-10T04:38:18.773Z,99.90
2019-05-10T04:40:45.583Z,99.90
2019-05-10T04:43:12.632Z,99.90
2019-05-10T04:45:39.485Z,99.90
2019-05-10T04:48:06.222Z,99.90
2019-05-10T04:50:32.987Z,99.90
2019-05-10T04:52:59.797Z,99.90
2019-05-10T04:55:26.555Z,99.90
2019-05-10T04:57:53.334Z,99.90
2019-05-10T05:00:20.059Z,99.90
2019-05-10T05:02:46.815Z,99.90
2019-05-10T05:05:14.068Z,99.90
2019-05-10T05:07:40.828Z,99.90
2019-05-10T05:10:07.741Z,99.90
2019-05-10T05:12:34.713Z,99.90
2019-05-10T05:15:01.649Z,99.90
2019-05-10T05:17:28.505Z,99.90
2019-05-10T05:19:55.360Z,99.90
2019-05-10T05:22:22.128Z,99.90
2019-05-10T05:24:49.003Z,99.90
2019-05-10T05:27:15.891Z,99.90
2019-05-10T05:29:42.620Z,99.90
2019-05-10T05:32:13.113Z,99.90
2019-05-10T05:34:38.702Z,99.90
2019-05-10T05:37:05.647Z,99.90
2019-05-10T05:39:32.486Z,99.90
2019-05-10T05:41:59.443Z,99.90
2019-05-10T05:44:27.847Z,99.90
2019-05-10T05:46:54.807Z,99.90
2019-05-10T05:49:21.793Z,99.90
2019-05-10T05:51:48.675Z,99.90
2019-05-10T05:54:20.886Z,99.90
2019-05-10T05:56:49.869Z,99.90
2019-05-10T05:59:17.619Z,99.90
2019-05-10T06:01:41.887Z,99.90
2019-05-10T06:04:12.216Z,99.90
2019-05-10T06:06:37.564Z,99.90
2019-05-10T06:09:05.603Z,99.90
2019-05-10T06:11:35.816Z,99.90
2019-05-10T06:14:03.942Z,99.90
2019-05-10T06:16:29.859Z,99.90
2019-05-10T06:18:56.739Z,99.90
2019-05-10T06:21:26.559Z,99.90
2019-05-10T06:23:52.276Z,99.90
2019-05-10T06:26:26.608Z,99.90
2019-05-10T06:29:04.650Z,99.90
2019-05-10T06:31:16.559Z,99.90
2019-05-10T06:33:45.086Z,99.90
2019-05-10T06:36:12.164Z,99.90
2019-05-10T06:38:38.933Z,99.90
2019-05-10T06:41:09.988Z,99.90
2019-05-10T06:43:34.587Z,99.90
2019-05-10T06:46:01.584Z,99.90
2019-05-10T06:48:33.003Z,99.90
2019-05-10T06:50:57.098Z,99.90
2019-05-10T06:53:24.158Z,99.90
2019-05-10T06:55:50.887Z,99.90
2019-05-10T06:58:17.963Z,99.90
2019-05-10T07:00:47.307Z,99.90
2019-05-10T07:03:13.332Z,99.90
2019-05-10T07:05:40.087Z,99.90
2019-05-10T07:08:14.920Z,99.90
2019-05-10T07:10:35.915Z,98.10
2019-05-10T07:13:06.411Z,99.40
2019-05-10T07:15:35.953Z,99.70
2019-05-10T07:18:00.211Z,98.40
2019-05-10T07:20:29.555Z,97.20
2019-05-10T07:23:00.067Z,95.30
2019-05-10T07:25:24.615Z,95.00
2019-05-10T07:27:51.424Z,95.50
2019-05-10T07:30:31.863Z,95.60
2019-05-10T07:32:59.787Z,95.10
2019-05-10T07:35:30.894Z,93.60
2019-05-10T07:37:56.547Z,94.70
2019-05-10T07:40:23.537Z,94.50
2019-05-10T07:42:50.375Z,94.20
2019-05-10T07:45:18.617Z,92.70
2019-05-10T07:47:45.913Z,94.30
2019-05-10T07:50:13.217Z,94.60
2019-05-10T07:52:43.402Z,94.70
2019-05-10T07:55:10.549Z,93.90
2019-05-10T07:57:37.903Z,90.80
2019-05-10T08:00:06.117Z,91.40
2019-05-10T08:02:33.227Z,91.10
2019-05-10T08:05:04.865Z,90.30
2019-05-10T08:07:29.470Z,88.10
2019-05-10T08:09:56.504Z,89.80
2019-05-10T08:12:23.355Z,90.10
2019-05-10T08:14:53.351Z,88.10
2019-05-10T08:17:19.244Z,89.20
2019-05-10T08:19:46.161Z,87.90
2019-05-10T08:22:14.825Z,89.50
2019-05-10T08:24:46.420Z,90.50
2019-05-10T08:27:14.493Z,90.20
2019-05-10T08:29:39.481Z,90.00
2019-05-10T08:32:06.331Z,88.40
2019-05-10T08:34:35.648Z,86.10
2019-05-10T08:37:02.608Z,83.70
2019-05-10T08:39:34.830Z,83.60
2019-05-10T08:42:04.915Z,87.00
2019-05-10T08:44:27.112Z,84.60
2019-05-10T08:46:53.954Z,84.20
2019-05-10T08:49:25.268Z,84.60
2019-05-10T08:51:50.061Z,80.70
2019-05-10T08:54:18.107Z,76.40
2019-05-10T08:56:46.737Z,72.70
2019-05-10T08:59:16.377Z,71.80
2019-05-10T09:01:46.422Z,69.20
2019-05-10T09:04:13.776Z,69.50
2019-05-10T09:06:42.020Z,63.00
2019-05-10T09:09:09.161Z,63.70
2019-05-10T09:11:36.027Z,66.00
2019-05-10T09:14:03.314Z,71.40
2019-05-10T09:16:39.286Z,74.10
2019-05-10T09:18:59.157Z,74.90
2019-05-10T09:21:26.058Z,75.60
2019-05-10T09:24:01.124Z,76.20
2019-05-10T09:26:22.727Z,74.30
2019-05-10T09:28:55.570Z,71.10
2019-05-10T09:31:22.668Z,70.10
2019-05-10T09:33:49.431Z,70.40
2019-05-10T09:36:16.339Z,67.50
2019-05-10T09:38:46.245Z,66.80
2019-05-10T09:41:12.203Z,66.00
2019-05-10T09:43:40.593Z,64.30
2019-05-10T09:46:07.852Z,67.30
2019-05-10T09:48:34.711Z,69.50
2019-05-10T09:51:04.153Z,68.20
2019-05-10T09:53:30.745Z,69.00
2019-05-10T09:56:02.508Z,69.40
2019-05-10T09:58:28.547Z,62.70
2019-05-10T10:01:12.847Z,62.60
2019-05-10T10:03:23.994Z,58.70
2019-05-10T10:05:55.360Z,60.30
2019-05-10T10:08:19.626Z,62.70
2019-05-10T10:10:47.539Z,62.40
2019-05-10T10:13:32.570Z,62.20
2019-05-10T10:15:46.854Z,63.00
2019-05-10T10:18:12.515Z,64.00
2019-05-10T10:20:45.038Z,63.30
2019-05-10T10:23:09.635Z,59.20
2019-05-10T10:25:40.526Z,62.10
2019-05-10T10:28:10.409Z,65.00
2019-05-10T10:30:34.219Z,63.90
2019-05-10T10:33:05.682Z,62.30
2019-05-10T10:35:29.995Z,56.80
2019-05-10T10:37:57.466Z,55.20
2019-05-10T10:40:27.945Z,49.70
2019-05-10T10:42:54.559Z,53.30
2019-05-10T10:45:21.319Z,52.50
2019-05-10T10:47:48.195Z,51.80
2019-05-10T10:50:17.225Z,52.10
2019-05-10T10:52:44.457Z,49.80
2019-05-10T10:55:13.423Z,51.80
2019-05-10T10:57:40.279Z,51.20
2019-05-10T11:00:08.275Z,50.70
2019-05-10T11:02:35.020Z,49.70
2019-05-10T11:05:01.819Z,48.30
2019-05-10T11:07:30.427Z,42.20
2019-05-10T11:10:13.380Z,42.70
2019-05-10T11:12:26.433Z,43.40
2019-05-10T11:14:53.163Z,46.20
2019-05-10T11:17:19.913Z,50.70
2019-05-10T11:19:46.663Z,47.80
2019-05-10T11:22:13.944Z,45.30
2019-05-10T11:24:40.815Z,43.80
2019-05-10T11:27:13.071Z,41.00
2019-05-10T11:29:36.746Z,44.40
2019-05-10T11:32:15.356Z,45.10
2019-05-10T11:34:37.578Z,45.00
2019-05-10T11:37:01.065Z,42.80
2019-05-10T11:39:32.961Z,43.50
2019-05-10T11:42:02.248Z,44.60
2019-05-10T11:44:25.905Z,46.70
2019-05-10T11:46:52.986Z,43.00
2019-05-10T11:49:20.479Z,43.50
2019-05-10T11:51:47.923Z,42.50
2019-05-10T11:54:16.216Z,39.40
2019-05-10T11:56:42.960Z,39.60
2019-05-10T11:59:12.366Z,41.10
2019-05-10T12:01:41.647Z,43.50
2019-05-10T12:04:13.138Z,43.40
2019-05-10T12:06:41.249Z,44.40
2019-05-10T12:09:05.339Z,45.40
2019-05-10T12:11:33.814Z,45.40
2019-05-10T12:14:02.427Z,46.30
2019-05-10T12:16:33.144Z,46.60
2019-05-10T12:19:10.399Z,45.70
2019-05-10T12:21:27.299Z,46.10
2019-05-10T12:23:56.201Z,44.10
2019-05-10T12:28:51.703Z,44.50
2019-05-10T12:31:21.083Z,45.70
2019-05-10T12:33:47.563Z,46.70
2019-05-10T12:36:25.496Z,47.00
2019-05-10T12:38:43.007Z,48.40
2019-05-10T12:41:10.061Z,48.80
2019-05-10T12:43:36.999Z,49.40
2019-05-10T12:46:03.941Z,50.50
2019-05-10T12:48:31.701Z,50.50
2019-05-10T12:51:04.941Z,53.00
2019-05-10T12:53:28.171Z,54.20
2019-05-10T12:55:55.179Z,51.80
2019-05-10T12:58:22.056Z,52.00
2019-05-10T13:00:52.603Z,50.00
2019-05-10T13:03:19.581Z,51.80
2019-05-10T13:05:52.388Z,51.30
2019-05-10T13:08:14.890Z,52.30
2019-05-10T13:10:43.282Z,52.60
2019-05-10T13:13:10.722Z,52.70
2019-05-10T13:15:37.515Z,52.00
2019-05-10T13:18:04.670Z,51.80
2019-05-10T13:20:36.699Z,52.70
2019-05-10T13:23:02.641Z,53.30
2019-05-10T13:25:29.619Z,51.70
2019-05-10T13:27:56.495Z,53.20
2019-05-10T13:30:28.232Z,54.90
2019-05-10T13:32:58.857Z,55.60
2019-05-10T13:35:21.096Z,54.50
2019-05-10T13:37:47.863Z,55.50
2019-05-10T13:40:15.111Z,52.70
2019-05-10T13:42:45.748Z,54.80
2019-05-10T13:45:11.443Z,51.70
2019-05-10T13:47:38.303Z,50.90
2019-05-10T13:50:05.818Z,51.00
2019-05-10T13:52:37.496Z,52.70
2019-05-10T13:55:01.910Z,54.00
2019-05-10T13:57:28.609Z,53.80
2019-05-10T13:59:57.349Z,56.10
2019-05-10T14:02:32.460Z,55.70
2019-05-10T14:04:53.541Z,55.80
2019-05-10T14:07:20.409Z,54.50
2019-05-10T14:09:47.169Z,53.20
2019-05-10T14:12:16.338Z,54.00
2019-05-10T14:14:42.942Z,53.10
2019-05-10T14:17:09.711Z,54.20
2019-05-10T14:19:36.739Z,52.80
2019-05-10T14:22:03.703Z,55.00
2019-05-10T14:24:30.452Z,53.80
2019-05-10T14:26:59.343Z,52.90
2019-05-10T14:29:34.392Z,54.90
2019-05-10T14:31:54.812Z,54.40
2019-05-10T14:34:21.535Z,54.30
2019-05-10T14:36:48.405Z,52.70
2019-05-10T14:39:15.136Z,52.60
2019-05-10T14:41:45.171Z,53.00
2019-05-10T14:44:10.807Z,54.90
2019-05-10T14:46:37.851Z,54.20
2019-05-10T14:49:09.799Z,51.90
2019-05-10T14:51:49.639Z,52.50
2019-05-10T14:54:06.791Z,51.60
2019-05-10T14:56:34.539Z,51.50
2019-05-10T14:59:01.413Z,50.20
2019-05-10T15:01:28.415Z,51.70
2019-05-10T15:03:55.155Z,51.20
2019-05-10T15:06:21.947Z,51.50
2019-05-10T15:08:48.808Z,49.00
2019-05-10T15:11:15.679Z,50.40
2019-05-10T15:13:42.539Z,51.10
2019-05-10T15:16:12.826Z,49.70
2019-05-10T15:18:38.171Z,50.20
2019-05-10T15:21:05.097Z,50.30
2019-05-10T15:23:31.843Z,50.40
2019-05-10T15:26:10.686Z,51.10
2019-05-10T15:28:34.654Z,51.20
2019-05-10T15:30:56.649Z,52.30
2019-05-10T15:33:23.415Z,52.40
2019-05-10T15:35:51.890Z,49.90
2019-05-10T15:38:19.303Z,49.80
2019-05-10T15:40:46.319Z,49.00
2019-05-10T15:43:16.987Z,48.30
2019-05-10T15:45:46.117Z,49.40
2019-05-10T15:48:10.820Z,50.40
2019-05-10T15:50:38.471Z,50.20
2019-05-10T15:53:06.563Z,50.40
2019-05-10T15:55:33.543Z,50.40
2019-05-10T15:58:00.355Z,50.90
2019-05-10T16:00:37.387Z,49.70
2019-05-10T16:02:56.478Z,51.00
2019-05-10T16:05:34.836Z,50.40
2019-05-10T16:07:53.156Z,51.40
2019-05-10T16:10:20.445Z,52.10
2019-05-10T16:12:47.211Z,52.10
2019-05-10T16:15:20.095Z,50.80
2019-05-10T16:17:42.961Z,50.90
2019-05-10T16:20:10.072Z,51.30
2019-05-10T16:22:37.027Z,52.10
2019-05-10T16:25:04.108Z,52.10
2019-05-10T16:27:33.916Z,53.10
2019-05-10T16:29:59.487Z,52.20
2019-05-10T16:32:29.258Z,52.80
2019-05-10T16:34:55.283Z,51.80
2019-05-10T16:37:22.131Z,52.00
2019-05-10T16:39:48.971Z,52.00
2019-05-10T16:42:15.887Z,52.50
2019-05-10T16:44:42.883Z,52.10
2019-05-10T16:47:09.619Z,51.00
2019-05-10T16:49:36.476Z,52.10
2019-05-10T16:52:03.299Z,52.80
2019-05-10T16:54:30.336Z,52.10
2019-05-10T16:57:01.404Z,52.80
2019-05-10T16:59:29.902Z,52.20
2019-05-10T17:02:03.176Z,52.50
2019-05-10T17:04:23.815Z,52.20
2019-05-10T17:06:50.687Z,53.70
2019-05-10T17:09:19.496Z,54.50
2019-05-10T17:11:47.344Z,55.80
2019-05-10T17:14:18.038Z,55.70
2019-05-10T17:16:44.546Z,55.40
2019-05-10T17:19:11.422Z,56.40
2019-05-10T17:21:38.372Z,56.90
2019-05-10T17:24:05.219Z,57.70
2019-05-10T17:26:32.897Z,58.20
2019-05-10T17:28:59.963Z,57.00
2019-05-10T17:31:26.768Z,57.70
2019-05-10T17:33:53.880Z,57.50
2019-05-10T17:36:21.545Z,57.90
2019-05-10T17:38:53.487Z,58.40
2019-05-10T17:41:19.451Z,57.60
2019-05-10T17:43:59.857Z,58.00
2019-05-10T17:46:33.861Z,58.40
2019-05-10T17:49:03.169Z,59.90
2019-05-10T17:51:30.082Z,60.70
2019-05-10T17:54:01.492Z,59.80
2019-05-10T17:56:25.727Z,59.70
2019-05-10T17:58:52.600Z,60.30
2019-05-10T18:01:19.375Z,61.20
2019-05-10T18:03:46.270Z,61.80
2019-05-10T18:06:23.422Z,62.20
2019-05-10T18:08:41.748Z,62.80
2019-05-10T18:11:08.515Z,62.10
2019-05-10T18:13:35.641Z,63.50
2019-05-10T18:16:04.662Z,63.30
2019-05-10T18:18:35.159Z,63.20
2019-05-10T18:21:01.692Z,64.40
2019-05-10T18:23:28.423Z,65.10
2019-05-10T18:25:58.591Z,66.00
2019-05-10T18:28:24.088Z,66.80
2019-05-10T18:30:51.100Z,67.90
2019-05-10T18:33:18.031Z,68.90
2019-05-10T18:35:47.524Z,69.80
2019-05-10T18:38:15.585Z,69.30
2019-05-10T18:40:42.325Z,68.90
2019-05-10T18:43:09.325Z,69.30
2019-05-10T18:45:36.319Z,69.70
2019-05-10T18:48:03.294Z,70.00
2019-05-10T18:50:30.188Z,70.00
2019-05-10T18:52:56.927Z,70.80
2019-05-10T18:55:23.806Z,71.20
2019-05-10T18:57:52.580Z,71.80
2019-05-10T19:00:22.909Z,73.10
2019-05-10T19:02:49.668Z,72.10
2019-05-10T19:05:17.667Z,72.90
2019-05-10T19:07:44.642Z,74.80
2019-05-10T19:10:11.810Z,75.80
2019-05-10T19:12:39.022Z,76.70
2019-05-10T19:15:09.165Z,77.50
2019-05-10T19:17:40.312Z,78.00
2019-05-10T19:20:09.373Z,79.50
2019-05-10T19:22:33.899Z,80.20
2019-05-10T19:25:10.833Z,81.70
2019-05-10T19:27:29.533Z,84.40
2019-05-10T19:29:56.280Z,85.10
2019-05-10T19:32:23.079Z,86.60
2019-05-10T19:34:57.134Z,87.50
2019-05-10T19:37:28.887Z,88.00
2019-05-10T19:39:47.544Z,87.70
2019-05-10T19:42:14.412Z,88.10
2019-05-10T19:44:42.303Z,89.80
2019-05-10T19:47:11.063Z,90.30
2019-05-10T19:49:38.046Z,90.60
2019-05-10T19:52:04.970Z,91.10
2019-05-10T19:54:31.743Z,91.50
2019-05-10T19:56:58.493Z,92.00
2019-05-10T19:59:25.339Z,92.50
2019-05-10T20:01:52.223Z,92.60
2019-05-10T20:04:18.999Z,92.70
2019-05-10T20:06:46.041Z,92.90
2019-05-10T20:09:12.923Z,93.30
2019-05-10T20:11:39.947Z,93.20
2019-05-10T20:14:07.568Z,93.30
2019-05-10T20:16:51.018Z,93.40
2019-05-10T20:19:03.822Z,93.50
2019-05-10T20:21:30.695Z,93.60
2019-05-10T20:23:57.608Z,94.20
2019-05-10T20:26:24.531Z,95.10
2019-05-10T20:28:51.264Z,95.30
2019-05-10T20:31:18.851Z,95.60
2019-05-10T20:33:45.644Z,95.60
2019-05-10T20:36:12.505Z,95.30
2019-05-10T20:38:39.329Z,95.40
2019-05-10T20:41:06.255Z,95.70
2019-05-10T20:43:33.015Z,95.20
2019-05-10T20:45:59.887Z,95.50
2019-05-10T20:48:26.627Z,95.70
2019-05-10T20:50:53.666Z,95.60
2019-05-10T20:53:20.620Z,95.90
2019-05-10T20:55:47.703Z,96.20
2019-05-10T20:58:14.660Z,96.40
2019-05-10T21:00:41.574Z,96.30
2019-05-10T21:03:08.306Z,96.50
2019-05-10T21:05:35.204Z,97.10
2019-05-10T21:08:16.068Z,97.70
2019-05-10T21:10:30.599Z,98.10
2019-05-10T21:12:57.539Z,98.60
2019-05-10T21:15:24.857Z,98.90
2019-05-10T21:17:51.603Z,99.40
2019-05-10T21:20:18.344Z,99.60
2019-05-10T21:22:45.298Z,99.60
2019-05-10T21:25:12.617Z,99.60
2019-05-10T21:27:39.357Z,99.20
2019-05-10T21:30:06.643Z,99.40
2019-05-10T21:32:33.394Z,99.40
2019-05-10T21:35:00.410Z,99.40
2019-05-10T21:37:27.184Z,99.50
2019-05-10T21:39:54.071Z,99.60
2019-05-10T21:42:20.943Z,99.90
2019-05-10T21:44:47.937Z,99.80
2019-05-10T21:47:14.688Z,99.90
2019-05-10T21:49:41.407Z,99.90
2019-05-10T21:52:08.386Z,99.90
2019-05-10T21:54:35.351Z,99.90
2019-05-10T21:57:02.231Z,99.90
2019-05-10T21:59:28.959Z,99.90
2019-05-10T22:01:56.039Z,99.90
2019-05-10T22:04:22.803Z,99.90
2019-05-10T22:06:49.808Z,99.90
2019-05-10T22:09:16.576Z,99.90
2019-05-10T22:11:43.543Z,99.90
2019-05-10T22:14:10.428Z,99.90
2019-05-10T22:16:37.192Z,99.90
2019-05-10T22:19:04.046Z,99.90
2019-05-10T22:21:31.027Z,99.90
2019-05-10T22:23:58.037Z,99.90
2019-05-10T22:26:24.921Z,99.90
2019-05-10T22:28:51.663Z,99.90
2019-05-10T22:31:18.570Z,99.90
2019-05-10T22:33:45.336Z,99.90
2019-05-10T22:36:12.187Z,99.90
2019-05-10T22:38:38.943Z,99.90
2019-05-10T22:41:05.850Z,99.90
2019-05-10T22:43:32.682Z,99.90
2019-05-10T22:45:59.579Z,99.90
2019-05-10T22:48:26.436Z,99.90
2019-05-10T22:50:53.192Z,99.90
2019-05-10T22:53:20.116Z,99.90
2019-05-10T22:55:46.853Z,99.90
2019-05-10T22:58:13.764Z,99.90
2019-05-10T23:00:40.596Z,99.90
2019-05-10T23:03:07.355Z,99.90
2019-05-10T23:05:34.092Z,99.90
2019-05-10T23:08:00.949Z,99.90
2019-05-10T23:10:27.957Z,99.90
2019-05-10T23:12:54.847Z,99.90
2019-05-10T23:15:21.831Z,99.90
2019-05-10T23:17:48.546Z,99.90
2019-05-10T23:20:15.555Z,99.90
2019-05-10T23:22:42.439Z,99.90
2019-05-10T23:25:09.481Z,99.90
2019-05-10T23:27:36.359Z,99.90
2019-05-10T23:30:04.071Z,99.90
2019-05-10T23:32:30.951Z,99.90
2019-05-10T23:34:57.723Z,99.90
2019-05-10T23:37:24.592Z,99.90
2019-05-10T23:39:51.432Z,99.90
2019-05-10T23:42:18.444Z,99.90
2019-05-10T23:44:45.295Z,99.90
2019-05-10T23:47:12.229Z,99.90
2019-05-10T23:49:38.996Z,99.90
2019-05-10T23:52:06.030Z,99.90
2019-05-10T23:54:32.871Z,99.90
2019-05-10T23:56:59.664Z,99.90
2019-05-10T23:59:26.607Z,99.90
